Time;durP1;ratioP1;P1;durP2;ratioP2;P2;SDS_P1;SDS_P2;PMS_P1;PMS_P2;Temp;Humidity;BMP_temperature;BMP_pressure;BME280_temperature;BME280_humidity;BME280_pressure;Samples;Min_cycle;Max_cycle;Signal;HPM_P1;HPM_P2
2022/11/24 00:01:32;;;;;;;24.90;3.87;;;8.80;99.90;;;;;;5063378;28;20416;-87
2022/11/24 00:04:01;;;;;;;20.27;3.60;;;8.80;99.90;;;;;;5057377;28;20293;-89
2022/11/24 00:06:28;;;;;;;20.33;3.17;;;8.80;99.90;;;;;;5057232;28;20251;-86
2022/11/24 00:08:58;;;;;;;23.13;3.23;;;8.80;99.90;;;;;;5056800;28;20232;-88
2022/11/24 00:11:26;;;;;;;16.83;3.53;;;8.80;99.90;;;;;;5056876;28;20224;-87
2022/11/24 00:13:53;;;;;;;14.60;2.77;;;8.80;99.90;;;;;;5056988;28;20580;-86
2022/11/24 00:16:23;;;;;;;24.30;4.40;;;8.90;99.90;;;;;;5056731;28;20584;-88
2022/11/24 00:18:52;;;;;;;19.13;3.63;;;9.00;99.90;;;;;;5056596;28;20237;-89
2022/11/24 00:21:20;;;;;;;17.53;3.97;;;9.00;99.90;;;;;;5056917;28;20222;-90
2022/11/24 00:23:48;;;;;;;21.30;3.67;;;9.10;99.90;;;;;;5056536;28;20293;-90
2022/11/24 00:26:18;;;;;;;16.47;3.03;;;9.10;99.90;;;;;;5056392;28;20569;-87
2022/11/24 00:28:47;;;;;;;19.67;4.03;;;9.10;99.90;;;;;;5056775;28;20625;-87
2022/11/24 00:31:19;;;;;;;22.57;3.63;;;9.10;99.90;;;;;;5076035;28;20681;-88
2022/11/24 00:33:47;;;;;;;13.73;3.43;;;9.10;99.90;;;;;;5071939;28;20220;-89
2022/11/24 00:36:15;;;;;;;11.10;2.87;;;9.10;99.90;;;;;;5056103;28;20205;-89
2022/11/24 00:38:43;;;;;;;15.93;2.97;;;9.10;99.90;;;;;;5056570;28;20538;-86
2022/11/24 00:41:10;;;;;;;18.63;3.37;;;9.10;99.90;;;;;;5056323;28;20258;-87
2022/11/24 00:43:38;;;;;;;14.93;3.50;;;9.10;99.90;;;;;;5055209;28;20205;-87
2022/11/24 00:46:06;;;;;;;12.27;3.30;;;9.10;99.90;;;;;;5055982;28;20725;-88
2022/11/24 00:48:33;;;;;;;13.67;3.40;;;9.10;99.90;;;;;;5056325;28;20214;-87
2022/11/24 00:51:02;;;;;;;16.50;3.57;;;9.10;99.90;;;;;;5055642;28;20629;-87
2022/11/24 00:53:30;;;;;;;22.33;3.83;;;9.10;99.90;;;;;;5056340;28;20281;-82
2022/11/24 00:55:57;;;;;;;17.67;3.20;;;9.20;99.90;;;;;;5055981;28;20218;-87
2022/11/24 00:58:24;;;;;;;19.40;3.60;;;9.20;99.90;;;;;;5055762;28;20280;-87
2022/11/24 01:00:53;;;;;;;13.00;3.10;;;9.10;99.90;;;;;;5056074;28;20302;-86
2022/11/24 01:03:21;;;;;;;16.33;3.30;;;9.10;99.90;;;;;;5056080;28;20206;-87
2022/11/24 01:05:48;;;;;;;17.37;3.17;;;9.10;99.90;;;;;;5055422;28;20209;-89
2022/11/24 01:08:15;;;;;;;14.47;4.50;;;9.10;99.90;;;;;;5056225;28;20230;-86
2022/11/24 01:10:42;;;;;;;15.77;3.70;;;9.00;99.90;;;;;;5056036;28;20229;-89
2022/11/24 01:13:10;;;;;;;16.37;3.77;;;9.00;99.90;;;;;;5055424;28;20236;-88
2022/11/24 01:15:38;;;;;;;14.97;4.13;;;9.00;99.90;;;;;;5055508;28;20198;-88
2022/11/24 01:18:07;;;;;;;16.10;4.57;;;9.00;99.90;;;;;;5055747;28;20200;-88
2022/11/24 01:20:34;;;;;;;14.47;3.73;;;9.00;99.90;;;;;;5055906;28;20205;-87
2022/11/24 01:23:01;;;;;;;11.43;3.30;;;8.90;99.90;;;;;;5055952;28;20198;-89
2022/11/24 01:25:28;;;;;;;16.87;3.53;;;8.90;99.90;;;;;;5055382;28;20202;-85
2022/11/24 01:27:55;;;;;;;11.70;3.40;;;8.90;99.90;;;;;;5055123;28;20607;-86
2022/11/24 01:30:22;;;;;;;17.43;3.50;;;8.80;99.90;;;;;;5055481;28;20570;-86
2022/11/24 01:32:49;;;;;;;15.23;4.03;;;8.80;99.90;;;;;;5055352;28;20282;-86
2022/11/24 01:35:17;;;;;;;17.63;3.30;;;8.80;99.90;;;;;;5055739;28;20201;-83
2022/11/24 01:37:44;;;;;;;12.83;2.93;;;8.80;99.90;;;;;;5055249;28;20244;-86
2022/11/24 01:40:12;;;;;;;14.60;4.33;;;8.80;99.90;;;;;;5054929;28;20205;-87
2022/11/24 01:42:48;;;;;;;16.27;3.17;;;8.80;99.90;;;;;;5055588;28;20661;-86
2022/11/24 01:45:35;;;;;;;14.97;4.57;;;8.80;99.90;;;;;;5074909;28;20308;-87
2022/11/24 01:48:06;;;;;;;20.33;4.90;;;8.70;99.90;;;;;;5074740;28;20221;-85
2022/11/24 01:50:35;;;;;;;14.70;3.63;;;8.80;99.90;;;;;;5066690;28;20255;-87
2022/11/24 01:53:03;;;;;;;14.97;2.73;;;8.80;99.90;;;;;;5055231;28;20268;-89
2022/11/24 01:55:35;;;;;;;10.60;2.97;;;8.70;99.90;;;;;;5054033;28;20672;-88
2022/11/24 01:58:05;;;;;;;18.13;4.23;;;8.70;99.90;;;;;;5055055;28;20222;-88
2022/11/24 02:00:34;;;;;;;13.87;2.93;;;8.70;99.90;;;;;;5074403;28;20204;-88
2022/11/24 02:03:01;;;;;;;11.20;3.43;;;8.80;99.90;;;;;;5073999;28;20362;-87
2022/11/24 02:05:33;;;;;;;11.87;3.37;;;8.80;99.90;;;;;;5054696;28;20286;-87
2022/11/24 02:08:03;;;;;;;11.07;4.03;;;8.80;99.90;;;;;;5054720;28;20321;-88
2022/11/24 02:10:30;;;;;;;10.20;3.57;;;8.80;99.90;;;;;;5070374;28;20240;-87
2022/11/24 02:13:00;;;;;;;9.27;2.40;;;8.80;99.90;;;;;;5075064;28;20220;-88
2022/11/24 02:15:28;;;;;;;17.10;3.57;;;8.80;99.90;;;;;;5074541;28;20570;-86
2022/11/24 02:17:55;;;;;;;15.17;3.07;;;8.80;99.90;;;;;;5069140;28;20554;-88
2022/11/24 02:20:22;;;;;;;15.07;2.93;;;8.80;99.90;;;;;;5054755;28;20228;-86
2022/11/24 02:22:55;;;;;;;13.80;2.90;;;8.80;99.90;;;;;;5070190;28;20249;-86
2022/11/24 02:25:35;;;;;;;7.13;2.33;;;8.70;99.90;;;;;;5073827;28;20209;-88
2022/11/24 02:28:08;;;;;;;14.77;3.30;;;8.80;99.90;;;;;;5054724;28;20194;-88
2022/11/24 02:30:35;;;;;;;13.20;2.63;;;8.80;99.90;;;;;;5054509;28;20708;-87
2022/11/24 02:33:02;;;;;;;12.70;3.77;;;8.80;99.90;;;;;;5054423;28;20277;-89
2022/11/24 02:35:29;;;;;;;14.53;3.70;;;8.80;99.90;;;;;;5054313;28;20210;-88
2022/11/24 02:37:56;;;;;;;13.00;3.23;;;8.80;99.90;;;;;;5054392;28;20218;-88
2022/11/24 02:40:26;;;;;;;9.83;2.50;;;8.80;99.90;;;;;;5054246;28;20246;-86
2022/11/24 02:42:56;;;;;;;14.70;2.83;;;8.80;99.90;;;;;;5072483;28;20274;-89
2022/11/24 02:45:27;;;;;;;14.10;3.27;;;8.80;99.90;;;;;;5073945;28;20287;-88
2022/11/24 02:47:54;;;;;;;12.53;2.60;;;8.80;99.90;;;;;;5074398;28;20247;-89
2022/11/24 02:50:21;;;;;;;11.03;2.97;;;8.80;99.90;;;;;;5060377;28;20296;-88
2022/11/24 02:52:48;;;;;;;11.73;2.60;;;8.80;99.90;;;;;;5054462;28;20289;-88
2022/11/24 02:55:15;;;;;;;7.57;2.40;;;8.80;99.90;;;;;;5054479;28;20284;-88
2022/11/24 02:57:42;;;;;;;18.27;3.70;;;8.80;99.90;;;;;;5053959;28;20229;-88
2022/11/24 03:00:10;;;;;;;16.30;3.23;;;8.90;99.90;;;;;;5054552;28;20562;-86
2022/11/24 03:02:39;;;;;;;14.50;3.47;;;8.90;99.90;;;;;;5054261;28;20228;-87
2022/11/24 03:05:06;;;;;;;12.80;2.67;;;8.90;99.90;;;;;;5054160;28;20248;-88
2022/11/24 03:07:33;;;;;;;11.60;2.70;;;8.90;99.90;;;;;;5057404;28;20222;-89
2022/11/24 03:10:00;;;;;;;15.13;2.97;;;8.90;99.90;;;;;;5070005;28;20205;-87
2022/11/24 03:12:27;;;;;;;12.83;2.83;;;8.80;99.90;;;;;;5078100;28;20581;-84
2022/11/24 03:14:54;;;;;;;8.57;2.10;;;8.80;99.90;;;;;;5077937;28;20201;-88
2022/11/24 03:17:21;;;;;;;13.50;2.70;;;8.80;99.90;;;;;;5078139;28;20194;-88
2022/11/24 03:19:49;;;;;;;10.87;2.57;;;8.80;99.90;;;;;;5060027;28;20229;-86
2022/11/24 03:22:16;;;;;;;9.63;2.30;;;8.80;99.90;;;;;;5057616;28;20276;-87
2022/11/24 03:24:43;;;;;;;9.90;2.20;;;8.70;99.90;;;;;;5058244;28;20284;-89
2022/11/24 03:27:10;;;;;;;8.40;2.10;;;8.70;99.90;;;;;;5071958;28;20205;-87
2022/11/24 03:29:38;;;;;;;10.63;2.27;;;8.70;99.90;;;;;;5071179;28;20245;-86
2022/11/24 03:32:05;;;;;;;8.93;1.90;;;8.70;99.90;;;;;;5057665;28;20216;-87
2022/11/24 03:34:32;;;;;;;11.47;2.30;;;8.70;99.90;;;;;;5057535;28;20210;-87
2022/11/24 03:37:01;;;;;;;8.13;2.10;;;8.70;99.90;;;;;;5057520;28;20221;-86
2022/11/24 03:39:28;;;;;;;11.23;2.70;;;8.80;99.90;;;;;;5057478;28;20202;-86
2022/11/24 03:41:55;;;;;;;14.40;2.30;;;8.80;99.90;;;;;;5068636;28;20221;-88
2022/11/24 03:44:22;;;;;;;21.30;3.13;;;8.80;99.90;;;;;;5077353;28;20197;-91
2022/11/24 03:46:49;;;;;;;16.93;2.67;;;8.90;99.90;;;;;;5077340;28;20532;-88
2022/11/24 03:49:16;;;;;;;16.60;2.40;;;8.90;99.90;;;;;;5076915;28;20237;-88
2022/11/24 03:51:43;;;;;;;10.07;2.90;;;9.00;99.90;;;;;;5077466;28;20236;-87
2022/11/24 03:54:11;;;;;;;8.60;2.37;;;9.00;99.90;;;;;;5064121;28;20240;-88
2022/11/24 03:56:39;;;;;;;23.67;4.00;;;9.10;99.90;;;;;;5057926;28;20280;-88
2022/11/24 03:59:06;;;;;;;15.23;3.37;;;9.10;99.90;;;;;;5077329;28;20274;-89
2022/11/24 04:01:33;;;;;;;17.13;3.20;;;9.20;99.90;;;;;;5077411;28;20197;-89
2022/11/24 04:04:00;;;;;;;16.20;3.57;;;9.30;99.90;;;;;;5077274;28;20238;-88
2022/11/24 04:06:27;;;;;;;21.37;4.27;;;9.30;99.90;;;;;;5071207;28;20198;-87
2022/11/24 04:08:53;;;;;;;25.43;4.30;;;9.40;99.90;;;;;;5056684;28;20206;-88
2022/11/24 04:14:06;;;;;;;22.60;3.77;;;9.50;99.90;;;;;;5056885;28;20657;-86
2022/11/24 04:16:33;;;;;;;20.77;4.23;;;9.50;99.90;;;;;;5056340;28;20270;-85
2022/11/24 04:19:00;;;;;;;25.90;4.00;;;9.60;99.90;;;;;;5056106;28;20488;-87
2022/11/24 04:21:27;;;;;;;20.00;4.40;;;9.60;99.90;;;;;;5057043;28;20194;-87
2022/11/24 04:23:54;;;;;;;26.53;4.13;;;9.60;99.90;;;;;;5056916;28;20285;-87
2022/11/24 04:26:22;;;;;;;27.10;5.07;;;9.70;99.90;;;;;;5070631;28;20513;-89
2022/11/24 04:28:50;;;;;;;21.30;4.20;;;9.60;99.90;;;;;;5075086;28;20200;-90
2022/11/24 04:31:17;;;;;;;20.80;4.83;;;9.70;99.90;;;;;;5056943;28;20224;-90
2022/11/24 04:33:43;;;;;;;18.43;3.57;;;9.60;99.90;;;;;;5056903;28;20279;-87
2022/11/24 04:36:10;;;;;;;23.27;3.33;;;9.60;99.90;;;;;;5065134;28;20211;-88
2022/11/24 04:38:37;;;;;;;16.40;3.33;;;9.60;99.90;;;;;;5076571;28;20212;-88
2022/11/24 04:41:05;;;;;;;15.63;3.00;;;9.60;99.90;;;;;;5076362;28;20202;-90
2022/11/24 04:43:33;;;;;;;21.10;3.97;;;9.50;99.90;;;;;;5069304;28;20224;-88
2022/11/24 04:46:00;;;;;;;20.97;3.77;;;9.50;99.90;;;;;;5053893;28;20645;-83
2022/11/24 04:48:27;;;;;;;18.97;3.20;;;9.50;99.90;;;;;;5054428;28;20225;-86
2022/11/24 04:50:55;;;;;;;12.60;3.53;;;9.60;99.90;;;;;;5053746;28;20198;-88
2022/11/24 04:53:22;;;;;;;14.57;3.60;;;9.60;99.90;;;;;;5055645;28;20202;-89
2022/11/24 04:55:49;;;;;;;12.60;2.87;;;9.50;99.90;;;;;;5055054;28;20212;-91
2022/11/24 04:58:16;;;;;;;13.97;3.60;;;9.50;99.90;;;;;;5053574;28;20281;-90
2022/11/24 05:00:44;;;;;;;18.73;2.80;;;9.50;99.90;;;;;;5055050;28;20202;-88
2022/11/24 05:03:11;;;;;;;15.60;2.83;;;9.40;99.90;;;;;;5055109;28;20232;-90
2022/11/24 05:05:38;;;;;;;11.70;2.23;;;9.40;99.90;;;;;;5055017;28;20238;-89
2022/11/24 05:08:05;;;;;;;12.20;3.60;;;9.40;99.90;;;;;;5055613;28;20208;-90
2022/11/24 05:10:35;;;;;;;15.50;3.07;;;9.40;99.90;;;;;;5055067;28;20608;-89
2022/11/24 05:13:03;;;;;;;11.73;2.67;;;9.30;99.90;;;;;;5054189;28;20206;-87
2022/11/24 05:15:30;;;;;;;11.20;2.40;;;9.30;99.90;;;;;;5054232;28;20212;-89
2022/11/24 05:17:59;;;;;;;21.47;4.47;;;9.40;99.90;;;;;;5054404;28;20554;-89
2022/11/24 05:20:26;;;;;;;19.07;3.57;;;9.40;99.90;;;;;;5054685;28;20315;-89
2022/11/24 05:22:53;;;;;;;13.13;2.87;;;9.40;99.90;;;;;;5055788;28;20335;-88
2022/11/24 05:25:20;;;;;;;25.53;4.33;;;9.40;99.90;;;;;;5061064;28;20205;-89
2022/11/24 05:27:47;;;;;;;18.67;4.77;;;9.40;99.90;;;;;;5075883;28;20193;-88
2022/11/24 05:30:14;;;;;;;13.63;3.33;;;9.40;99.90;;;;;;5075242;28;20217;-90
2022/11/24 05:32:41;;;;;;;13.77;3.63;;;9.40;99.90;;;;;;5063510;28;20205;-86
2022/11/24 05:35:09;;;;;;;15.70;4.00;;;9.40;99.90;;;;;;5055691;28;20202;-88
2022/11/24 05:37:37;;;;;;;18.07;3.80;;;9.40;99.90;;;;;;5062895;28;20213;-88
2022/11/24 05:40:05;;;;;;;17.63;3.97;;;9.40;99.90;;;;;;5075363;28;20208;-90
2022/11/24 05:42:41;;;;;;;18.73;4.20;;;9.40;99.90;;;;;;5059846;28;20300;-89
2022/11/24 05:45:11;;;;;;;17.50;4.20;;;9.50;99.90;;;;;;5055124;28;20237;-90
2022/11/24 05:47:38;;;;;;;14.17;3.37;;;9.50;99.90;;;;;;5055361;28;20221;-90
2022/11/24 05:50:06;;;;;;;15.60;3.33;;;9.50;99.90;;;;;;5055359;28;20325;-90
2022/11/24 05:52:35;;;;;;;16.23;3.60;;;9.40;99.90;;;;;;5055533;28;20198;-91
2022/11/24 05:55:02;;;;;;;21.53;3.30;;;9.40;99.90;;;;;;5054883;28;20585;-89
2022/11/24 05:57:29;;;;;;;8.93;2.70;;;9.40;99.90;;;;;;5055013;28;20240;-89
2022/11/24 05:59:56;;;;;;;8.97;2.97;;;9.30;99.90;;;;;;5055095;28;20587;-89
2022/11/24 06:02:23;;;;;;;10.67;2.50;;;9.30;99.90;;;;;;5054655;28;20232;-89
2022/11/24 06:04:50;;;;;;;15.13;3.07;;;9.30;99.90;;;;;;5054976;28;20201;-89
2022/11/24 06:07:17;;;;;;;10.70;3.33;;;9.30;99.90;;;;;;5054806;28;20289;-90
2022/11/24 06:09:45;;;;;;;16.23;3.03;;;9.30;99.90;;;;;;5063446;28;20593;-90
2022/11/24 06:12:13;;;;;;;12.60;2.30;;;9.30;99.90;;;;;;5074828;28;20202;-88
2022/11/24 06:14:40;;;;;;;13.03;2.10;;;9.30;99.90;;;;;;5061027;28;20259;-91
2022/11/24 06:17:09;;;;;;;11.03;2.30;;;9.30;99.90;;;;;;5054885;28;20209;-89
2022/11/24 06:19:36;;;;;;;14.17;3.93;;;9.30;99.90;;;;;;5055009;28;20209;-89
2022/11/24 06:22:03;;;;;;;16.03;2.30;;;9.30;99.90;;;;;;5054600;28;20290;-91
2022/11/24 06:24:30;;;;;;;13.47;2.60;;;9.40;99.90;;;;;;5054876;28;20272;-89
2022/11/24 06:26:58;;;;;;;18.27;3.87;;;9.40;99.90;;;;;;5055239;28;20209;-87
2022/11/24 06:29:25;;;;;;;13.63;2.57;;;9.40;99.90;;;;;;5054843;28;20622;-92
2022/11/24 06:31:52;;;;;;;11.53;2.30;;;9.50;99.90;;;;;;5054916;28;20202;-90
2022/11/24 06:34:19;;;;;;;9.13;2.00;;;9.50;99.90;;;;;;5069671;28;20231;-90
2022/11/24 06:36:46;;;;;;;11.73;2.87;;;9.40;99.90;;;;;;5075021;28;20201;-89
2022/11/24 06:39:12;;;;;;;12.60;2.13;;;9.50;99.90;;;;;;5074744;28;20656;-90
2022/11/24 06:41:39;;;;;;;13.87;2.27;;;9.40;99.90;;;;;;5068784;28;20728;-90
2022/11/24 06:44:08;;;;;;;13.03;2.57;;;9.40;99.90;;;;;;5059098;28;20505;-92
2022/11/24 06:46:34;;;;;;;10.67;2.23;;;9.40;99.90;;;;;;5058871;28;20692;-91
2022/11/24 06:49:01;;;;;;;11.87;2.63;;;9.30;99.90;;;;;;5058872;28;20529;-91
2022/11/24 06:51:28;;;;;;;9.90;2.20;;;9.30;99.90;;;;;;5065726;28;20235;-90
2022/11/24 06:53:55;;;;;;;11.23;2.83;;;9.30;99.90;;;;;;5078703;28;20508;-89
2022/11/24 06:56:22;;;;;;;11.00;1.97;;;9.30;99.90;;;;;;5081062;28;20907;-90
2022/11/24 06:58:50;;;;;;;8.90;2.23;;;9.20;99.90;;;;;;5072214;28;20225;-90
2022/11/24 07:01:20;;;;;;;14.60;2.37;;;9.20;99.90;;;;;;5068336;28;20281;-89
2022/11/24 07:03:48;;;;;;;13.23;2.70;;;9.20;99.90;;;;;;5058515;28;20518;-89
2022/11/24 07:06:15;;;;;;;10.97;2.17;;;9.20;99.90;;;;;;5058448;28;20205;-89
2022/11/24 07:08:43;;;;;;;7.50;2.13;;;9.20;99.90;;;;;;5058421;28;20213;-92
2022/11/24 07:11:14;;;;;;;6.23;1.67;;;9.20;99.90;;;;;;5058018;28;20794;-88
2022/11/24 07:13:41;;;;;;;5.93;1.87;;;9.10;99.90;;;;;;5058042;28;20202;-88
2022/11/24 07:16:16;;;;;;;8.67;1.57;;;9.10;99.90;;;;;;5065751;28;20207;-89
2022/11/24 07:18:46;;;;;;;8.07;2.00;;;9.00;99.90;;;;;;5058890;28;20207;-91
2022/11/24 07:21:13;;;;;;;10.90;2.53;;;9.00;99.90;;;;;;5063113;28;20602;-90
2022/11/24 07:23:41;;;;;;;10.17;1.97;;;9.00;99.90;;;;;;5058048;28;20230;-90
2022/11/24 07:26:09;;;;;;;13.47;2.20;;;9.00;99.90;;;;;;5057868;28;20599;-91
2022/11/24 07:28:37;;;;;;;11.87;2.27;;;8.90;99.90;;;;;;5057342;28;20201;-89
2022/11/24 07:31:07;;;;;;;9.27;1.80;;;8.90;99.90;;;;;;5058317;28;20253;-87
2022/11/24 07:33:35;;;;;;;7.23;2.47;;;8.90;99.90;;;;;;5057671;28;20190;-89
2022/11/24 07:36:06;;;;;;;9.50;2.10;;;8.90;99.90;;;;;;5055360;28;20723;-87
2022/11/24 07:38:33;;;;;;;5.10;1.57;;;8.80;99.90;;;;;;5056556;28;20276;-85
2022/11/24 07:41:01;;;;;;;6.90;1.40;;;8.80;99.90;;;;;;5056952;28;20201;-84
2022/11/24 07:43:29;;;;;;;9.00;2.10;;;8.80;99.90;;;;;;5056376;28;20299;-84
2022/11/24 07:45:56;;;;;;;7.67;1.60;;;8.90;99.90;;;;;;5056977;28;20240;-87
2022/11/24 07:48:22;;;;;;;9.40;3.33;;;8.80;99.90;;;;;;5057472;28;20225;-91
2022/11/24 07:50:49;;;;;;;11.57;2.17;;;8.80;99.90;;;;;;5075726;28;20228;-90
2022/11/24 07:53:17;;;;;;;6.37;1.90;;;8.80;99.90;;;;;;5062128;28;20193;-85
2022/11/24 07:55:55;;;;;;;8.63;1.77;;;8.80;99.90;;;;;;5063490;28;20212;-86
2022/11/24 07:58:22;;;;;;;7.87;2.00;;;8.80;99.90;;;;;;5059022;28;20206;-89
2022/11/24 08:00:49;;;;;;;7.20;2.60;;;8.80;99.90;;;;;;5068776;28;20282;-89
2022/11/24 08:03:17;;;;;;;8.57;2.20;;;8.80;99.90;;;;;;5069618;28;20428;-89
2022/11/24 08:05:52;;;;;;;9.23;2.53;;;8.70;99.90;;;;;;5065305;28;20282;-90
2022/11/24 08:08:21;;;;;;;7.53;2.23;;;8.80;99.90;;;;;;5062479;28;20211;-90
2022/11/24 08:10:48;;;;;;;7.70;2.23;;;8.70;99.90;;;;;;5063263;28;20215;-89
2022/11/24 08:13:15;;;;;;;11.00;2.00;;;8.70;99.90;;;;;;5068721;28;20194;-90
2022/11/24 08:15:42;;;;;;;9.67;2.47;;;8.70;99.90;;;;;;5069017;28;20243;-90
2022/11/24 08:18:09;;;;;;;9.53;2.30;;;8.70;99.90;;;;;;5073092;28;20202;-89
2022/11/24 08:20:36;;;;;;;8.10;2.43;;;8.70;99.90;;;;;;5072557;28;20197;-88
2022/11/24 08:23:03;;;;;;;10.87;2.70;;;8.70;99.90;;;;;;5070066;28;20218;-89
2022/11/24 08:25:32;;;;;;;13.60;3.60;;;8.70;99.90;;;;;;5064058;28;20209;-88
2022/11/24 08:27:58;;;;;;;9.63;3.20;;;8.70;99.90;;;;;;5076831;28;20208;-89
2022/11/24 08:30:25;;;;;;;6.27;2.03;;;8.70;99.90;;;;;;5076188;28;20213;-86
2022/11/24 08:32:52;;;;;;;11.33;2.83;;;8.70;99.90;;;;;;5076802;28;20694;-91
2022/11/24 08:35:19;;;;;;;5.80;2.30;;;8.70;99.90;;;;;;5056440;28;20213;-89
2022/11/24 08:37:46;;;;;;;8.83;2.50;;;8.70;99.90;;;;;;5056241;28;20209;-86
2022/11/24 08:40:13;;;;;;;8.20;2.57;;;8.70;99.90;;;;;;5056838;28;20488;-88
2022/11/24 08:42:42;;;;;;;7.70;2.33;;;8.80;99.90;;;;;;5056247;28;20496;-90
2022/11/24 08:45:09;;;;;;;5.83;2.60;;;8.80;99.90;;;;;;5056874;28;20276;-90
2022/11/24 08:47:36;;;;;;;4.27;1.93;;;8.80;99.90;;;;;;5078645;28;20227;-90
2022/11/24 08:50:04;;;;;;;5.00;2.23;;;8.80;99.90;;;;;;5096072;28;20284;-89
2022/11/24 08:52:31;;;;;;;6.17;2.50;;;8.70;99.90;;;;;;5092254;28;20205;-89
2022/11/24 08:54:58;;;;;;;9.70;2.60;;;8.70;99.90;;;;;;5079142;28;20196;-89
2022/11/24 08:57:25;;;;;;;12.00;3.30;;;8.80;99.90;;;;;;5089155;28;20203;-90
2022/11/24 08:59:53;;;;;;;11.70;3.20;;;8.70;99.90;;;;;;5076000;28;20204;-88
2022/11/24 09:02:20;;;;;;;10.60;4.10;;;8.80;99.90;;;;;;5075968;28;20209;-89
2022/11/24 09:04:47;;;;;;;8.87;2.77;;;8.80;99.90;;;;;;5075103;28;20617;-89
2022/11/24 09:07:13;;;;;;;10.77;2.83;;;8.80;99.90;;;;;;5076169;28;20590;-89
2022/11/24 09:09:40;;;;;;;12.17;3.40;;;8.80;99.90;;;;;;5060594;28;20617;-88
2022/11/24 09:12:09;;;;;;;10.17;3.33;;;8.90;99.90;;;;;;5056397;28;20208;-89
2022/11/24 09:14:36;;;;;;;11.27;3.20;;;9.00;99.90;;;;;;5056096;28;20204;-90
2022/11/24 09:17:04;;;;;;;10.83;3.67;;;9.00;99.90;;;;;;5068647;28;20212;-90
2022/11/24 09:19:31;;;;;;;20.80;4.77;;;9.20;99.90;;;;;;5075791;28;20201;-89
2022/11/24 09:21:58;;;;;;;11.63;3.50;;;9.20;99.90;;;;;;5075355;28;20194;-90
2022/11/24 09:24:25;;;;;;;19.23;4.70;;;9.30;99.90;;;;;;5069355;28;20229;-91
2022/11/24 09:26:54;;;;;;;20.47;5.07;;;9.40;99.90;;;;;;5055299;28;20230;-88
2022/11/24 09:29:21;;;;;;;27.20;5.03;;;9.50;99.90;;;;;;5065333;28;20212;-87
2022/11/24 09:31:48;;;;;;;15.93;4.27;;;9.70;99.90;;;;;;5055411;28;20198;-88
2022/11/24 09:34:17;;;;;;;21.57;3.90;;;9.80;99.90;;;;;;5055681;28;20216;-91
2022/11/24 09:36:44;;;;;;;26.03;4.60;;;9.80;99.90;;;;;;5055764;28;20202;-89
2022/11/24 09:39:11;;;;;;;22.27;4.30;;;9.90;99.90;;;;;;5054739;28;20202;-84
2022/11/24 09:42:04;;;;;;;22.23;3.70;;;10.00;99.90;;;;;;5085490;28;20610;-89
2022/11/24 09:44:58;;;;;;;15.57;4.00;;;10.00;99.90;;;;;;5091976;28;20221;-84
2022/11/24 09:47:37;;;;;;;17.17;3.47;;;10.10;99.90;;;;;;5061551;28;20206;-87
2022/11/24 09:50:13;;;;;;;22.53;5.70;;;10.10;99.90;;;;;;5055469;28;20692;-87
2022/11/24 09:52:45;;;;;;;19.90;4.20;;;10.20;99.90;;;;;;5073938;28;20256;-91
2022/11/24 09:55:30;;;;;;;13.17;4.13;;;10.30;99.90;;;;;;5073511;28;20193;-90
2022/11/24 09:58:06;;;;;;;23.97;4.50;;;10.30;99.90;;;;;;5075306;28;20201;-87
2022/11/24 10:00:33;;;;;;;25.87;4.93;;;10.30;99.90;;;;;;5071761;28;20616;-87
2022/11/24 10:03:00;;;;;;;26.13;4.60;;;10.30;99.90;;;;;;5053952;28;20201;-86
2022/11/24 10:05:33;;;;;;;15.83;4.23;;;10.30;99.90;;;;;;5055835;28;20237;-86
2022/11/24 10:08:12;;;;;;;21.10;5.93;;;10.40;99.90;;;;;;5073990;28;20206;-90
2022/11/24 10:10:47;;;;;;;24.30;5.47;;;10.40;99.90;;;;;;5074060;28;20657;-87
2022/11/24 10:13:35;;;;;;;21.03;4.37;;;10.40;99.90;;;;;;5072114;28;20276;-86
2022/11/24 10:16:11;;;;;;;15.97;4.07;;;10.50;99.90;;;;;;5055976;28;20224;-87
2022/11/24 10:18:48;;;;;;;22.23;4.27;;;10.50;99.90;;;;;;5063531;28;20204;-89
2022/11/24 10:21:34;;;;;;;23.30;4.30;;;10.50;99.90;;;;;;5064357;28;20585;-87
2022/11/24 10:24:18;;;;;;;23.83;5.67;;;10.50;99.90;;;;;;5053861;28;20240;-91
2022/11/24 10:26:51;;;;;;;21.37;4.20;;;10.60;99.90;;;;;;5054110;28;20594;-86
2022/11/24 10:29:24;;;;;;;25.40;5.27;;;10.60;99.90;;;;;;5078900;28;20204;-88
2022/11/24 10:31:54;;;;;;;23.77;4.03;;;10.70;99.90;;;;;;5057875;28;20289;-86
2022/11/24 10:34:28;;;;;;;20.17;4.93;;;10.70;99.90;;;;;;5053765;28;20539;-88
2022/11/24 10:37:01;;;;;;;21.47;4.27;;;10.70;99.90;;;;;;5054502;28;20212;-89
2022/11/24 10:39:34;;;;;;;24.63;5.03;;;10.80;99.90;;;;;;5054684;28;20282;-86
2022/11/24 10:42:12;;;;;;;29.60;6.07;;;10.80;99.90;;;;;;5058500;28;20231;-86
2022/11/24 10:44:41;;;;;;;26.80;5.40;;;10.90;99.90;;;;;;5073946;28;20240;-86
2022/11/24 10:47:17;;;;;;;28.20;5.43;;;11.00;99.90;;;;;;5073709;28;20197;-83
2022/11/24 10:49:48;;;;;;;24.90;6.03;;;11.10;99.90;;;;;;5064599;28;20204;-89
2022/11/24 10:52:18;;;;;;;28.77;5.67;;;11.20;99.90;;;;;;5054458;28;20206;-87
2022/11/24 10:54:56;;;;;;;17.07;4.30;;;11.20;99.90;;;;;;5071037;28;20208;-85
2022/11/24 10:57:32;;;;;;;24.27;4.50;;;11.30;99.90;;;;;;5073610;28;20768;-86
2022/11/24 11:00:00;;;;;;;18.33;4.17;;;11.30;99.90;;;;;;5065304;28;20605;-85
2022/11/24 11:02:31;;;;;;;18.90;4.63;;;11.30;99.90;;;;;;5053470;28;20285;-86
2022/11/24 11:04:58;;;;;;;20.03;5.07;;;11.30;99.90;;;;;;5054276;28;20226;-87
2022/11/24 11:07:27;;;;;;;18.67;4.23;;;11.20;99.90;;;;;;5054018;28;20609;-90
2022/11/24 11:10:17;;;;;;;11.63;3.10;;;11.20;99.90;;;;;;5054203;28;20198;-87
2022/11/24 11:12:44;;;;;;;19.70;4.40;;;11.20;99.90;;;;;;5054411;28;20269;-89
2022/11/24 11:15:23;;;;;;;15.43;3.10;;;11.30;99.90;;;;;;5054228;28;20234;-91
2022/11/24 11:17:53;;;;;;;15.10;3.60;;;11.30;99.90;;;;;;5053911;28;20256;-91
2022/11/24 11:20:26;;;;;;;15.80;3.53;;;11.30;99.90;;;;;;5054080;28;20281;-91
2022/11/24 11:22:56;;;;;;;18.73;3.37;;;11.30;99.90;;;;;;5054246;28;20206;-90
2022/11/24 11:25:27;;;;;;;12.80;4.27;;;11.30;99.90;;;;;;5054222;28;20229;-91
2022/11/24 11:28:17;;;;;;;15.53;3.57;;;11.30;99.90;;;;;;5056207;28;20198;-90
2022/11/24 11:30:57;;;;;;;17.10;4.70;;;11.30;99.90;;;;;;5057480;28;20220;-92
2022/11/24 11:33:27;;;;;;;14.30;3.27;;;11.30;99.90;;;;;;5058148;28;20202;-92
2022/11/24 11:35:54;;;;;;;20.37;3.77;;;11.40;99.90;;;;;;5066100;28;20617;-93
2022/11/24 11:38:25;;;;;;;18.53;4.33;;;11.50;99.90;;;;;;5077226;28;20205;-93
2022/11/24 11:40:52;;;;;;;19.83;3.83;;;11.60;99.90;;;;;;5077838;28;20189;-91
2022/11/24 11:43:25;;;;;;;20.33;4.27;;;11.60;99.90;;;;;;5057742;28;20202;-89
2022/11/24 11:46:02;;;;;;;14.93;3.30;;;11.70;99.90;;;;;;5057325;28;20233;-92
2022/11/24 11:48:32;;;;;;;15.77;3.30;;;11.70;99.90;;;;;;5057207;28;20236;-93
2022/11/24 11:51:05;;;;;;;12.40;3.30;;;11.80;99.90;;;;;;5058028;28;20499;-90
2022/11/24 11:53:43;;;;;;;22.87;4.43;;;11.80;99.90;;;;;;5056620;28;20267;-87
2022/11/24 11:56:21;;;;;;;12.53;3.90;;;11.80;99.90;;;;;;5057761;28;20235;-91
2022/11/24 11:59:06;;;;;;;17.57;3.30;;;11.90;99.90;;;;;;5057166;28;20213;-93
2022/11/24 12:01:55;;;;;;;16.10;3.50;;;11.80;99.90;;;;;;5057388;28;20210;-90
2022/11/24 12:04:38;;;;;;;15.33;4.23;;;11.80;99.90;;;;;;5057056;28;20225;-92
2022/11/24 12:07:28;;;;;;;19.17;3.73;;;11.80;99.90;;;;;;5057486;28;20666;-90
2022/11/24 12:10:08;;;;;;;20.57;3.70;;;11.70;99.90;;;;;;5058221;28;20209;-92
2022/11/24 12:13:02;;;;;;;18.20;4.37;;;11.80;99.90;;;;;;5057643;28;20548;-88
2022/11/24 12:15:35;;;;;;;21.47;3.87;;;11.70;99.90;;;;;;5051599;28;20211;-88
2022/11/24 12:18:22;;;;;;;16.63;3.73;;;11.80;99.90;;;;;;5056589;28;20209;-89
2022/11/24 12:21:03;;;;;;;17.87;3.43;;;11.70;99.90;;;;;;5057169;28;20190;-91
2022/11/24 12:23:40;;;;;;;16.70;3.70;;;11.70;99.90;;;;;;5056598;28;20630;-91
2022/11/24 12:26:16;;;;;;;21.90;4.27;;;11.70;99.90;;;;;;5057047;28;20233;-89
2022/11/24 12:28:52;;;;;;;16.03;4.10;;;11.70;99.90;;;;;;5056294;28;20296;-91
2022/11/24 12:31:28;;;;;;;15.80;3.57;;;11.70;99.90;;;;;;5056559;28;20643;-89
2022/11/24 12:34:08;;;;;;;16.33;3.77;;;11.70;99.90;;;;;;5057707;28;20594;-91
2022/11/24 12:36:51;;;;;;;16.17;3.47;;;11.80;99.90;;;;;;5076833;28;20280;-91
2022/11/24 12:39:25;;;;;;;17.30;3.97;;;11.80;99.90;;;;;;5060472;28;20198;-88
2022/11/24 12:42:05;;;;;;;12.23;3.40;;;11.80;99.90;;;;;;5056092;28;20204;-86
2022/11/24 12:44:52;;;;;;;18.67;4.13;;;11.80;99.90;;;;;;5055445;28;20551;-83
2022/11/24 12:47:23;;;;;;;15.17;3.27;;;11.70;99.90;;;;;;5055642;28;20201;-85
2022/11/24 12:50:03;;;;;;;16.93;4.47;;;11.70;99.90;;;;;;5054843;28;20200;-84
2022/11/24 12:52:35;;;;;;;17.20;3.73;;;11.70;99.90;;;;;;5054885;28;20194;-83
2022/11/24 12:55:03;;;;;;;14.33;3.37;;;11.60;99.90;;;;;;5055865;28;20281;-82
2022/11/24 12:57:36;;;;;;;16.63;3.97;;;11.60;99.90;;;;;;5055281;28;20283;-86
2022/11/24 13:00:06;;;;;;;16.33;4.27;;;11.60;99.90;;;;;;5063463;28;20216;-83
2022/11/24 13:02:47;;;;;;;16.90;3.77;;;11.60;99.90;;;;;;5058776;28;20366;-84